createdAt,value
2019-03-02T00:01:32.842Z,13.83
2019-03-02T00:04:02.969Z,12.43
2019-03-02T00:06:35.736Z,12.67
2019-03-02T00:09:05.848Z,13.27
2019-03-02T00:11:36.193Z,13.57
2019-03-02T00:14:06.283Z,13.77
2019-03-02T00:16:39.918Z,14.63
2019-03-02T00:19:08.369Z,14.30
2019-03-02T00:21:38.259Z,15.67
2019-03-02T00:24:08.771Z,15.63
2019-03-02T00:26:38.706Z,15.37
2019-03-02T00:29:11.120Z,15.40
2019-03-02T00:31:40.460Z,16.57
2019-03-02T00:34:10.714Z,16.73
2019-03-02T00:36:40.927Z,15.80
2019-03-02T00:39:10.934Z,14.87
2019-03-02T00:41:42.177Z,15.80
2019-03-02T00:44:13.327Z,15.57
2019-03-02T00:46:43.664Z,15.73
2019-03-02T00:49:14.085Z,15.90
2019-03-02T00:51:46.321Z,17.97
2019-03-02T00:54:16.366Z,17.63
2019-03-02T00:56:46.654Z,16.27
2019-03-02T00:59:16.682Z,17.80
2019-03-02T01:01:46.544Z,16.67
2019-03-02T01:04:16.429Z,16.93
2019-03-02T01:06:48.733Z,18.97
2019-03-02T01:09:17.785Z,19.30
2019-03-02T01:11:47.674Z,19.57
2019-03-02T01:14:17.847Z,19.30
2019-03-02T01:16:47.906Z,19.40
2019-03-02T01:19:18.457Z,19.23
2019-03-02T01:21:49.157Z,17.77
2019-03-02T01:24:19.352Z,18.53
2019-03-02T01:26:49.899Z,21.13
2019-03-02T01:29:20.445Z,19.40
2019-03-02T01:31:50.262Z,21.97
2019-03-02T01:34:20.364Z,22.00
2019-03-02T01:36:50.303Z,20.33
2019-03-02T01:39:20.357Z,22.43
2019-03-02T01:41:50.984Z,21.97
2019-03-02T01:44:23.037Z,21.80
2019-03-02T01:46:53.003Z,23.20
2019-03-02T01:49:22.975Z,23.37
2019-03-02T01:51:54.708Z,23.50
2019-03-02T01:54:24.633Z,22.70
2019-03-02T01:56:54.445Z,24.07
2019-03-02T01:59:24.643Z,24.67
2019-03-02T02:01:56.522Z,25.03
2019-03-02T02:04:26.740Z,23.33
2019-03-02T02:06:56.607Z,25.50
2019-03-02T02:09:27.144Z,27.53
2019-03-02T02:11:57.357Z,27.03
2019-03-02T02:14:27.586Z,26.87
2019-03-02T02:16:57.801Z,26.37
2019-03-02T02:19:27.640Z,26.90
2019-03-02T02:21:58.811Z,27.83
2019-03-02T02:24:29.325Z,26.50
2019-03-02T02:26:59.199Z,26.00
2019-03-02T02:29:29.048Z,27.87
2019-03-02T02:31:58.819Z,27.17
2019-03-02T02:34:28.761Z,28.70
2019-03-02T02:37:00.092Z,28.20
2019-03-02T02:39:33.600Z,29.80
2019-03-02T02:42:05.140Z,28.37
2019-03-02T02:44:37.692Z,26.33
2019-03-02T02:47:07.195Z,27.80
2019-03-02T02:49:36.734Z,28.20
2019-03-02T02:52:06.621Z,28.07
2019-03-02T02:54:36.831Z,27.30
2019-03-02T02:57:06.677Z,28.10
2019-03-02T02:59:38.571Z,28.87
2019-03-02T03:02:10.941Z,28.00
2019-03-02T03:04:41.159Z,29.27
2019-03-02T03:07:12.473Z,28.50
2019-03-02T03:10:07.513Z,29.97
2019-03-02T03:12:37.393Z,30.00
2019-03-02T03:15:07.292Z,29.03
2019-03-02T03:17:37.332Z,28.80
2019-03-02T03:20:10.622Z,30.00
2019-03-02T03:22:40.980Z,30.10
2019-03-02T03:25:13.935Z,30.50
2019-03-02T03:27:47.669Z,27.90
2019-03-02T03:30:14.641Z,26.93
2019-03-02T03:32:54.478Z,29.63
2019-03-02T03:35:19.235Z,29.40
2019-03-02T03:37:51.278Z,30.17
2019-03-02T03:40:24.878Z,32.07
2019-03-02T03:42:51.611Z,27.37
2019-03-02T03:45:21.486Z,27.60
2019-03-02T03:47:51.351Z,29.80
2019-03-02T03:50:21.323Z,31.37
2019-03-02T03:52:51.274Z,31.90
2019-03-02T03:55:26.805Z,28.63
2019-03-02T03:57:55.419Z,30.67
2019-03-02T04:00:24.662Z,32.23
2019-03-02T04:02:54.499Z,33.00
2019-03-02T04:05:24.273Z,30.87
2019-03-02T04:07:55.562Z,32.47
2019-03-02T04:10:30.352Z,33.70
2019-03-02T04:13:04.859Z,34.30
2019-03-02T04:15:40.702Z,36.67
2019-03-02T04:18:03.327Z,35.70
2019-03-02T04:20:36.330Z,36.77
2019-03-02T04:23:09.442Z,33.17
2019-03-02T04:25:39.134Z,35.20
2019-03-02T04:28:09.412Z,33.80
2019-03-02T04:30:39.276Z,36.77
2019-03-02T04:33:09.329Z,39.60
2019-03-02T04:35:39.030Z,35.63
2019-03-02T04:38:08.968Z,36.93
2019-03-02T04:40:38.711Z,38.17
2019-03-02T04:43:08.641Z,38.40
2019-03-02T04:45:39.680Z,40.63
2019-03-02T04:48:10.191Z,37.90
2019-03-02T04:50:40.435Z,38.33
2019-03-02T04:53:10.671Z,38.30
2019-03-02T04:55:40.384Z,37.10
2019-03-02T04:58:11.973Z,38.37
2019-03-02T05:00:42.033Z,38.10
2019-03-02T05:03:11.742Z,37.53
2019-03-02T05:05:43.449Z,37.43
2019-03-02T05:08:13.509Z,34.13
2019-03-02T05:10:43.254Z,37.20
2019-03-02T05:13:13.012Z,39.50
2019-03-02T05:15:43.025Z,34.93
2019-03-02T05:18:14.797Z,35.47
2019-03-02T05:20:44.411Z,34.13
2019-03-02T05:23:14.197Z,36.10
2019-03-02T05:25:43.951Z,35.70
2019-03-02T05:28:13.925Z,38.10
2019-03-02T05:30:43.682Z,36.00
2019-03-02T05:33:13.856Z,36.13
2019-03-02T05:35:43.584Z,36.67
2019-03-02T05:38:15.193Z,35.90
2019-03-02T05:40:45.048Z,37.90
2019-03-02T05:43:15.042Z,37.23
2019-03-02T05:45:45.184Z,37.03
2019-03-02T05:48:15.000Z,37.87
2019-03-02T05:50:44.829Z,37.93
2019-03-02T05:53:14.507Z,38.80
2019-03-02T05:55:44.565Z,38.30
2019-03-02T05:58:15.905Z,36.67
2019-03-02T06:00:45.964Z,36.33
2019-03-02T06:03:15.945Z,36.37
2019-03-02T06:05:46.287Z,33.90
2019-03-02T06:08:15.952Z,34.43
2019-03-02T06:10:45.649Z,39.00
2019-03-02T06:13:15.551Z,38.97
2019-03-02T06:15:46.386Z,38.80
2019-03-02T06:18:16.221Z,37.87
2019-03-02T06:20:46.601Z,37.60
2019-03-02T06:23:16.650Z,39.50
2019-03-02T06:25:46.323Z,39.93
2019-03-02T06:28:19.691Z,39.13
2019-03-02T06:30:49.185Z,41.47
2019-03-02T06:33:44.104Z,41.03
2019-03-02T06:36:13.336Z,40.30
2019-03-02T06:38:43.174Z,36.43
2019-03-02T06:41:12.862Z,37.17
2019-03-02T06:43:43.634Z,39.10
2019-03-02T06:46:15.971Z,39.03
2019-03-02T06:48:45.860Z,39.20
2019-03-02T06:51:15.794Z,39.67
2019-03-02T06:53:45.764Z,40.47
2019-03-02T06:56:15.872Z,38.50
2019-03-02T06:58:45.838Z,39.90
2019-03-02T07:01:15.645Z,38.87
2019-03-02T07:03:45.889Z,37.23
2019-03-02T07:06:17.390Z,40.33
2019-03-02T07:08:47.275Z,39.53
2019-03-02T07:11:16.873Z,38.30
2019-03-02T07:13:46.795Z,38.53
2019-03-02T07:16:19.691Z,41.13
2019-03-02T07:18:59.458Z,39.10
2019-03-02T07:21:29.378Z,37.87
2019-03-02T07:23:59.097Z,38.03
2019-03-02T07:26:29.022Z,39.33
2019-03-02T07:28:58.865Z,40.20
2019-03-02T07:31:28.636Z,38.63
2019-03-02T07:33:58.891Z,39.27
2019-03-02T07:36:33.838Z,35.30
2019-03-02T07:39:00.037Z,38.77
2019-03-02T07:41:30.231Z,33.67
2019-03-02T07:44:00.032Z,34.50
2019-03-02T07:46:30.058Z,34.57
2019-03-02T07:48:59.985Z,34.00
2019-03-02T07:51:30.100Z,35.07
2019-03-02T07:54:02.042Z,35.63
2019-03-02T07:56:32.488Z,34.40
2019-03-02T07:59:02.428Z,33.33
2019-03-02T08:01:34.057Z,34.53
2019-03-02T08:04:04.923Z,30.20
2019-03-02T08:06:36.279Z,30.37
2019-03-02T08:09:08.344Z,31.27
2019-03-02T08:11:38.485Z,31.33
2019-03-02T08:14:08.923Z,31.50
2019-03-02T08:16:39.740Z,28.20
2019-03-02T08:19:10.725Z,29.33
2019-03-02T08:21:41.267Z,31.33
2019-03-02T08:24:11.345Z,30.53
2019-03-02T08:26:41.443Z,28.83
2019-03-02T08:29:12.002Z,30.27
2019-03-02T08:31:45.656Z,28.00
2019-03-02T08:34:13.997Z,28.07
2019-03-02T08:36:44.479Z,29.00
2019-03-02T08:39:14.734Z,27.60
2019-03-02T08:41:45.014Z,28.33
2019-03-02T08:44:15.468Z,26.87
2019-03-02T08:46:46.216Z,27.17
2019-03-02T08:49:15.889Z,26.67
2019-03-02T08:51:45.911Z,28.97
2019-03-02T08:54:17.861Z,26.70
2019-03-02T08:56:48.941Z,29.43
2019-03-02T08:59:18.619Z,27.23
2019-03-02T09:01:51.326Z,28.67
2019-03-02T09:04:19.779Z,28.20
2019-03-02T09:06:49.504Z,24.77
2019-03-02T09:09:19.933Z,27.80
2019-03-02T09:11:49.591Z,28.00
2019-03-02T09:14:19.273Z,26.03
2019-03-02T09:16:48.934Z,25.20
2019-03-02T09:19:20.914Z,25.40
2019-03-02T09:21:50.722Z,26.83
2019-03-02T09:24:20.319Z,24.93
2019-03-02T09:26:50.133Z,26.50
2019-03-02T09:29:19.812Z,26.70
2019-03-02T09:31:50.038Z,25.90
2019-03-02T09:34:20.191Z,25.73
2019-03-02T09:36:49.795Z,23.53
2019-03-02T09:39:19.678Z,25.80
2019-03-02T09:41:49.412Z,24.60
2019-03-02T09:44:19.097Z,25.43
2019-03-02T09:46:49.027Z,25.37
2019-03-02T09:49:18.628Z,22.77
2019-03-02T09:51:49.312Z,23.07
2019-03-02T09:54:19.052Z,26.60
2019-03-02T09:56:48.996Z,23.03
2019-03-02T09:59:20.211Z,26.10
2019-03-02T10:01:50.666Z,22.37
2019-03-02T10:04:20.360Z,23.90
2019-03-02T10:06:50.487Z,25.13
2019-03-02T10:09:21.967Z,23.63
2019-03-02T10:11:52.587Z,23.23
2019-03-02T10:14:26.850Z,23.73
2019-03-02T10:16:56.783Z,24.07
2019-03-02T10:19:28.885Z,20.80
2019-03-02T10:21:59.259Z,23.40
2019-03-02T10:24:29.265Z,23.80
2019-03-02T10:26:59.663Z,21.73
2019-03-02T10:29:32.103Z,23.23
2019-03-02T10:32:01.999Z,22.73
2019-03-02T10:34:32.391Z,22.07
2019-03-02T10:37:03.627Z,23.77
2019-03-02T10:39:34.390Z,23.47
2019-03-02T10:42:04.703Z,24.93
2019-03-02T10:44:34.809Z,21.67
2019-03-02T10:47:04.783Z,24.40
2019-03-02T10:49:34.525Z,22.83
2019-03-02T10:52:04.281Z,22.97
2019-03-02T10:54:34.902Z,22.50
2019-03-02T10:57:05.224Z,23.10
2019-03-02T10:59:34.924Z,22.93
2019-03-02T11:02:04.683Z,21.70
2019-03-02T11:04:45.830Z,22.70
2019-03-02T11:07:40.618Z,20.70
2019-03-02T11:10:34.091Z,23.53
2019-03-02T11:13:41.211Z,20.73
2019-03-02T11:16:35.883Z,19.87
2019-03-02T11:19:25.769Z,20.20
2019-03-02T11:22:38.200Z,21.60
2019-03-02T11:25:18.549Z,21.67
2019-03-02T11:28:09.976Z,21.13
2019-03-02T11:30:57.481Z,19.47
2019-03-02T11:33:46.743Z,18.90
2019-03-02T11:36:45.840Z,20.10
2019-03-02T11:39:33.475Z,19.70
2019-03-02T11:42:42.781Z,19.37
2019-03-02T11:45:39.989Z,20.33
2019-03-02T11:48:34.502Z,19.67
2019-03-02T11:51:18.209Z,19.67
2019-03-02T11:53:56.180Z,21.93
2019-03-02T11:56:47.896Z,20.20
2019-03-02T11:59:46.448Z,19.83
2019-03-02T12:02:44.376Z,20.20
2019-03-02T12:05:33.329Z,19.67
2019-03-02T12:08:24.924Z,20.60
2019-03-02T12:11:10.467Z,18.03
2019-03-02T12:13:58.106Z,17.73
2019-03-02T12:16:40.424Z,17.80
2019-03-02T12:19:16.553Z,18.20
2019-03-02T12:22:10.910Z,19.20
2019-03-02T12:24:59.517Z,18.57
2019-03-02T12:27:44.394Z,17.53
2019-03-02T12:30:39.747Z,16.70
2019-03-02T12:33:28.299Z,17.07
2019-03-02T12:36:17.247Z,17.87
2019-03-02T12:39:07.342Z,17.80
2019-03-02T12:41:54.870Z,16.37
2019-03-02T12:44:49.870Z,18.07
2019-03-02T12:47:29.951Z,16.83
2019-03-02T12:50:36.247Z,17.40
2019-03-02T12:53:30.623Z,18.20
2019-03-02T12:56:25.314Z,17.43
2019-03-02T12:59:16.831Z,14.27
2019-03-02T13:02:09.999Z,12.87
2019-03-02T13:04:48.635Z,13.03
2019-03-02T13:07:47.098Z,12.63
2019-03-02T13:10:36.358Z,12.23
2019-03-02T13:13:40.388Z,10.87
2019-03-02T13:16:26.987Z,11.33
2019-03-02T13:19:01.087Z,11.50
2019-03-02T13:22:01.934Z,12.47
2019-03-02T13:24:53.726Z,10.67
2019-03-02T13:27:46.584Z,10.10
2019-03-02T13:30:25.703Z,9.73
2019-03-02T13:33:09.401Z,9.53
2019-03-02T13:35:46.999Z,9.73
2019-03-02T13:38:34.614Z,10.00
2019-03-02T13:41:30.024Z,9.40
2019-03-02T13:44:24.227Z,8.10
2019-03-02T13:47:11.527Z,8.10
2019-03-02T13:49:57.118Z,8.10
2019-03-02T13:52:44.405Z,7.57
2019-03-02T13:55:21.614Z,6.10
2019-03-02T13:58:25.447Z,6.80
2019-03-02T14:01:13.031Z,6.30
2019-03-02T14:04:32.883Z,6.03
2019-03-02T14:07:21.481Z,6.50
2019-03-02T14:10:20.578Z,6.43
2019-03-02T14:13:07.986Z,6.40
2019-03-02T14:16:02.286Z,6.33
2019-03-02T14:18:57.069Z,7.30
2019-03-02T14:21:39.936Z,7.47
2019-03-02T14:24:43.223Z,8.30
2019-03-02T14:27:23.936Z,7.50
2019-03-02T14:30:12.406Z,7.37
2019-03-02T14:33:00.643Z,7.77
2019-03-02T14:35:48.462Z,7.87
2019-03-02T14:38:33.052Z,7.80
2019-03-02T14:41:20.324Z,7.70
2019-03-02T14:44:15.310Z,6.73
2019-03-02T14:46:56.269Z,7.40
2019-03-02T14:49:43.061Z,7.67
2019-03-02T14:52:33.372Z,6.60
2019-03-02T14:55:20.883Z,7.27
2019-03-02T14:58:12.304Z,8.37
2019-03-02T15:01:02.312Z,7.30
2019-03-02T15:03:58.041Z,8.00
2019-03-02T15:06:49.891Z,7.20
2019-03-02T15:09:26.569Z,7.23
2019-03-02T15:12:12.616Z,7.73
2019-03-02T15:15:02.328Z,7.90
2019-03-02T15:17:49.178Z,7.83
2019-03-02T15:20:42.239Z,7.53
2019-03-02T15:23:28.525Z,7.17
2019-03-02T15:26:14.047Z,7.47
2019-03-02T15:28:56.977Z,6.50
2019-03-02T15:31:51.854Z,7.00
2019-03-02T15:34:50.183Z,5.80
2019-03-02T15:37:45.938Z,5.67
2019-03-02T15:40:28.785Z,6.80
2019-03-02T15:43:23.042Z,7.53
2019-03-02T15:46:02.127Z,6.40
2019-03-02T15:48:42.434Z,7.30
2019-03-02T15:51:32.285Z,7.63
2019-03-02T15:54:10.369Z,7.23
2019-03-02T15:57:05.045Z,7.57
2019-03-02T15:59:55.270Z,7.33
2019-03-02T16:02:32.138Z,8.23
2019-03-02T16:05:26.874Z,7.93
2019-03-02T16:08:18.236Z,8.17
2019-03-02T16:11:05.800Z,7.43
2019-03-02T16:14:21.127Z,8.37
2019-03-02T16:17:27.316Z,7.83
2019-03-02T16:20:19.169Z,7.10
2019-03-02T16:23:10.986Z,9.60
2019-03-02T16:26:00.256Z,8.70
2019-03-02T16:28:38.989Z,8.23
2019-03-02T16:31:26.857Z,7.00
2019-03-02T16:34:24.681Z,5.80
2019-03-02T16:37:13.017Z,5.80
2019-03-02T16:40:02.388Z,4.80
2019-03-02T16:42:50.875Z,4.73
2019-03-02T16:45:40.178Z,4.50
2019-03-02T16:48:24.964Z,5.27
2019-03-02T16:51:10.231Z,4.90
2019-03-02T16:54:01.915Z,6.00
2019-03-02T16:56:59.692Z,5.73
2019-03-02T16:59:48.382Z,4.83
2019-03-02T17:02:29.769Z,6.13
2019-03-02T17:05:21.073Z,6.20
2019-03-02T17:07:59.481Z,6.30
2019-03-02T17:10:38.504Z,5.53
2019-03-02T17:13:27.745Z,6.10
2019-03-02T17:16:15.393Z,6.47
2019-03-02T17:19:07.480Z,5.73
2019-03-02T17:21:57.503Z,6.53
2019-03-02T17:24:49.257Z,5.23
2019-03-02T17:27:47.000Z,5.50
2019-03-02T17:30:35.777Z,5.83
2019-03-02T17:33:26.921Z,5.80
2019-03-02T17:36:11.658Z,5.97
2019-03-02T17:39:06.461Z,6.27
2019-03-02T17:41:45.303Z,5.60
2019-03-02T17:44:33.808Z,6.10
2019-03-02T17:47:26.254Z,6.33
2019-03-02T17:50:16.278Z,6.50
2019-03-02T17:53:09.453Z,5.87
2019-03-02T17:55:56.902Z,5.97
2019-03-02T17:58:36.421Z,5.97
2019-03-02T18:01:28.728Z,6.50
2019-03-02T18:04:21.107Z,7.10
2019-03-02T18:07:00.435Z,7.47
2019-03-02T18:09:49.427Z,6.73
2019-03-02T18:12:34.552Z,7.40
2019-03-02T18:15:16.906Z,6.70
2019-03-02T18:17:59.687Z,6.30
2019-03-02T18:20:29.957Z,6.63
2019-03-02T18:22:59.615Z,6.40
2019-03-02T18:25:29.770Z,7.23
2019-03-02T18:27:59.453Z,7.50
2019-03-02T18:30:29.331Z,6.93
2019-03-02T18:33:14.896Z,6.70
2019-03-02T18:35:44.507Z,6.87
2019-03-02T18:38:14.103Z,7.60
2019-03-02T18:40:45.267Z,7.13
2019-03-02T18:43:14.980Z,6.50
2019-03-02T18:45:45.934Z,7.47
2019-03-02T18:48:34.111Z,7.13
2019-03-02T18:51:17.616Z,6.77
2019-03-02T18:53:47.269Z,6.70
2019-03-02T18:56:17.098Z,7.50
2019-03-02T18:58:48.084Z,7.30
2019-03-02T19:01:17.793Z,7.43
2019-03-02T19:03:47.475Z,7.90
2019-03-02T19:06:17.544Z,7.50
2019-03-02T19:08:50.902Z,6.93
2019-03-02T19:11:19.071Z,8.33
2019-03-02T19:13:49.911Z,7.57
2019-03-02T19:16:19.518Z,9.53
2019-03-02T19:18:49.193Z,9.27
2019-03-02T19:21:18.913Z,9.40
2019-03-02T19:23:48.599Z,9.60
2019-03-02T19:26:18.345Z,10.97
2019-03-02T19:28:48.025Z,10.00
2019-03-02T19:31:21.238Z,11.13
2019-03-02T19:33:50.992Z,10.77
2019-03-02T19:36:20.755Z,11.20
2019-03-02T19:38:50.728Z,11.10
2019-03-02T19:41:20.657Z,10.93
2019-03-02T19:43:50.437Z,11.40
2019-03-02T19:46:20.400Z,11.53
2019-03-02T19:48:50.387Z,11.83
2019-03-02T19:51:20.343Z,10.53
2019-03-02T19:53:50.720Z,11.40
2019-03-02T19:56:20.453Z,9.50
2019-03-02T19:58:50.427Z,9.70
2019-03-02T20:01:20.709Z,10.10
2019-03-02T20:03:50.397Z,10.23
2019-03-02T20:06:20.104Z,11.27
2019-03-02T20:08:50.106Z,10.93
2019-03-02T20:11:19.890Z,11.67
2019-03-02T20:13:49.712Z,10.63
2019-03-02T20:16:20.224Z,10.97
2019-03-02T20:18:50.758Z,11.33
2019-03-02T20:21:23.472Z,10.57
2019-03-02T20:23:53.462Z,10.63
2019-03-02T20:26:23.226Z,9.63
2019-03-02T20:28:53.449Z,11.07
2019-03-02T20:31:23.529Z,10.67
2019-03-02T20:33:53.219Z,9.80
2019-03-02T20:36:23.642Z,9.50
2019-03-02T20:38:54.067Z,8.93
2019-03-02T20:41:24.320Z,10.40
2019-03-02T20:43:54.414Z,9.10
2019-03-02T20:46:24.994Z,10.87
2019-03-02T20:48:55.329Z,9.70
2019-03-02T20:51:25.082Z,9.67
2019-03-02T20:53:55.196Z,10.73
2019-03-02T20:56:24.905Z,9.13
2019-03-02T20:58:54.473Z,8.80
2019-03-02T21:01:25.373Z,9.73
2019-03-02T21:03:55.510Z,8.20
2019-03-02T21:06:25.935Z,8.03
2019-03-02T21:08:55.656Z,8.20
2019-03-02T21:11:25.369Z,7.23
2019-03-02T21:13:56.160Z,7.30
2019-03-02T21:16:26.584Z,8.17
2019-03-02T21:18:56.379Z,7.53
2019-03-02T21:21:26.645Z,7.20
2019-03-02T21:23:58.115Z,7.17
2019-03-02T21:26:27.691Z,7.23
2019-03-02T21:28:57.360Z,7.40
2019-03-02T21:31:27.382Z,7.77
2019-03-02T21:33:57.359Z,7.60
2019-03-02T21:36:27.475Z,7.10
2019-03-02T21:38:58.099Z,7.03
2019-03-02T21:41:27.747Z,6.93
2019-03-02T21:43:57.772Z,6.73
2019-03-02T21:46:27.375Z,6.93
2019-03-02T21:48:57.143Z,8.10
2019-03-02T21:51:27.311Z,8.73
2019-03-02T21:53:57.035Z,7.47
2019-03-02T21:56:26.744Z,7.73
2019-03-02T21:58:56.447Z,7.90
2019-03-02T22:01:26.784Z,7.63
2019-03-02T22:03:56.906Z,8.67
2019-03-02T22:06:26.535Z,8.80
2019-03-02T22:08:56.141Z,8.90
2019-03-02T22:11:26.221Z,8.67
2019-03-02T22:13:55.969Z,9.50
2019-03-02T22:16:26.344Z,10.00
2019-03-02T22:18:55.990Z,9.27
2019-03-02T22:21:26.088Z,11.07
2019-03-02T22:23:56.053Z,10.03
2019-03-02T22:26:26.120Z,10.50
2019-03-02T22:28:56.463Z,10.70
2019-03-02T22:31:26.678Z,9.87
2019-03-02T22:33:56.343Z,11.97
2019-03-02T22:36:26.181Z,9.53
2019-03-02T22:38:55.765Z,9.57
2019-03-02T22:41:26.224Z,8.87
2019-03-02T22:43:56.149Z,8.30
2019-03-02T22:46:25.771Z,8.70
2019-03-02T22:48:55.397Z,7.90
2019-03-02T22:51:25.844Z,8.50
2019-03-02T22:53:55.742Z,8.33
2019-03-02T22:56:25.792Z,8.00
2019-03-02T22:58:54.846Z,8.23
2019-03-02T23:01:57.397Z,7.37
2019-03-02T23:04:27.179Z,6.43
2019-03-02T23:06:57.141Z,6.00
2019-03-02T23:09:27.116Z,5.57
2019-03-02T23:11:56.797Z,5.77
2019-03-02T23:14:27.061Z,6.47
2019-03-02T23:16:56.928Z,6.47
2019-03-02T23:19:27.401Z,7.57
2019-03-02T23:21:58.918Z,6.23
2019-03-02T23:24:28.761Z,7.20
2019-03-02T23:26:58.709Z,6.23
2019-03-02T23:29:28.290Z,5.90
2019-03-02T23:31:59.004Z,6.50
2019-03-02T23:34:36.990Z,6.33
2019-03-02T23:37:02.520Z,6.27
2019-03-02T23:39:32.100Z,5.70
2019-03-02T23:42:02.223Z,7.23
2019-03-02T23:44:31.804Z,5.77
2019-03-02T23:47:01.956Z,5.60
2019-03-02T23:49:33.463Z,6.53
2019-03-02T23:52:03.645Z,5.33
2019-03-02T23:54:33.642Z,4.80
2019-03-02T23:57:03.328Z,4.87
2019-03-02T23:59:32.968Z,5.00
